Time;durP1;ratioP1;P1;durP2;ratioP2;P2;SDS_P1;SDS_P2;PMS_P1;PMS_P2;Temp;Humidity;BMP_temperature;BMP_pressure;BME280_temperature;BME280_humidity;BME280_pressure;Samples;Min_cycle;Max_cycle;Signal;HPM_P1;HPM_P2
2022/10/01 00:01:07;;;;;;;;;;;22.70;99.90;;;;;;5154037;27;20368;-73
2022/10/01 00:03:34;;;;;;;;;;;22.70;99.90;;;;;;5153216;27;19942;-73
2022/10/01 00:06:00;;;;;;;;;;;22.80;99.90;;;;;;5153220;27;20309;-73
2022/10/01 00:08:27;;;;;;;;;;;22.80;99.90;;;;;;5153289;27;19907;-73
2022/10/01 00:10:53;;;;;;;;;;;22.80;99.90;;;;;;5153100;27;19903;-73
2022/10/01 00:13:19;;;;;;;;;;;22.90;99.90;;;;;;5153007;27;19911;-72
2022/10/01 00:15:45;;;;;;;;;;;22.90;99.90;;;;;;5153582;27;19929;-73
2022/10/01 00:18:11;;;;;;;;;;;22.90;99.90;;;;;;5152959;27;19918;-73
2022/10/01 00:20:42;;;;;;;;;;;22.90;99.90;;;;;;5153070;27;19904;-73
2022/10/01 00:23:12;;;;;;;;;;;23.00;99.90;;;;;;5153024;27;19903;-73
2022/10/01 00:25:38;;;;;;;;;;;23.10;99.90;;;;;;5152845;27;19926;-73
2022/10/01 00:28:03;;;;;;;;;;;23.20;99.90;;;;;;5152668;27;20051;-73
2022/10/01 00:30:29;;;;;;;;;;;23.30;99.90;;;;;;5152713;27;19944;-73
2022/10/01 00:32:55;;;;;;;;;;;23.40;99.90;;;;;;5153166;27;19986;-73
2022/10/01 00:35:21;;;;;;;;;;;23.40;99.90;;;;;;5151286;27;19936;-74
2022/10/01 00:37:49;;;;;;;;;;;23.40;99.90;;;;;;5152974;27;19910;-73
2022/10/01 00:40:16;;;;;;;;;;;23.40;99.90;;;;;;5152496;27;20267;-73
2022/10/01 00:42:42;;;;;;;;;;;23.50;99.90;;;;;;5152582;27;19907;-73
2022/10/01 00:45:26;;;;;;;;;;;23.50;99.90;;;;;;5152730;27;19907;-73
2022/10/01 00:47:54;;;;;;;;;;;23.50;99.90;;;;;;5152604;27;19972;-73
2022/10/01 00:50:38;;;;;;;;;;;23.50;99.90;;;;;;5152874;27;19979;-73
2022/10/01 00:53:06;;;;;;;;;;;23.60;99.90;;;;;;5152843;27;19903;-73
2022/10/01 00:55:35;;;;;;;;;;;23.60;99.90;;;;;;5152709;27;19909;-73
2022/10/01 00:58:01;;;;;;;;;;;23.50;99.90;;;;;;5152613;27;19941;-74
2022/10/01 01:00:28;;;;;;;;;;;23.50;99.90;;;;;;5152714;27;19903;-74
2022/10/01 01:02:53;;;;;;;;;;;23.50;99.90;;;;;;5152647;27;19975;-73
2022/10/01 01:05:20;;;;;;;;;;;23.30;99.90;;;;;;5152593;27;19903;-73
2022/10/01 01:07:47;;;;;;;;;;;23.20;99.90;;;;;;5152345;27;20013;-73
2022/10/01 01:10:15;;;;;;;;;;;23.20;99.90;;;;;;5152421;27;19903;-73
2022/10/01 01:12:55;;;;;;;;;;;23.20;99.90;;;;;;5152547;27;19903;-73
2022/10/01 01:15:30;;;;;;;;;;;23.20;99.90;;;;;;5156220;27;19915;-73
2022/10/01 01:17:58;;;;;;;;;;;23.20;99.90;;;;;;5157029;27;19903;-73
2022/10/01 01:20:42;;;;;;;;;;;23.20;99.90;;;;;;5156717;27;19957;-72
2022/10/01 01:23:17;;;;;;;;;;;23.20;99.90;;;;;;5156920;27;19947;-73
2022/10/01 01:25:46;;;;;;;;;;;23.30;99.90;;;;;;5156794;27;19903;-73
2022/10/01 01:28:18;;;;;;;;;;;23.30;99.90;;;;;;5156336;27;19940;-73
2022/10/01 01:30:46;;;;;;;;;;;23.20;99.90;;;;;;5156404;27;20299;-74
2022/10/01 01:33:14;;;;;;;;;;;23.20;99.90;;;;;;5155281;27;20286;-73
2022/10/01 01:35:48;;;;;;;;;;;23.20;99.90;;;;;;5156235;27;20009;-74
2022/10/01 01:38:16;;;;;;;;;;;23.20;99.90;;;;;;5156263;27;19903;-73
2022/10/01 01:40:43;;;;;;;;;;;23.20;99.90;;;;;;5156275;27;19903;-73
2022/10/01 01:43:17;;;;;;;;;;;23.20;99.90;;;;;;5154531;27;20087;-73
2022/10/01 01:45:43;;;;;;;;;;;23.30;99.90;;;;;;5156360;27;19922;-74
2022/10/01 01:48:11;;;;;;;;;;;23.30;99.90;;;;;;5156076;27;20068;-73
2022/10/01 01:50:58;;;;;;;;;;;23.30;99.90;;;;;;5156471;27;19904;-73
2022/10/01 01:53:25;;;;;;;;;;;23.30;99.90;;;;;;5156196;27;19910;-74
2022/10/01 01:55:51;;;;;;;;;;;23.30;99.90;;;;;;5155955;27;19933;-73
2022/10/01 01:58:18;;;;;;;;;;;23.30;99.90;;;;;;5156220;27;19903;-73
2022/10/01 02:00:45;;;;;;;;;;;23.20;99.90;;;;;;5156075;27;19907;-74
2022/10/01 02:03:11;;;;;;;;;;;23.30;99.90;;;;;;5154294;27;20002;-73
2022/10/01 02:05:42;;;;;;;;;;;23.30;99.90;;;;;;5156005;27;19903;-74
2022/10/01 02:08:27;;;;;;;;;;;23.10;99.90;;;;;;5155583;27;19911;-73
2022/10/01 02:11:02;;;;;;;;;;;23.10;99.90;;;;;;5155987;27;19903;-73
2022/10/01 02:13:37;;;;;;;;;;;23.10;99.90;;;;;;5155425;27;19986;-73
2022/10/01 02:16:20;;;;;;;;;;;23.10;99.90;;;;;;5155502;27;19917;-73
2022/10/01 02:19:00;;;;;;;;;;;23.00;99.90;;;;;;5155877;27;19996;-74
2022/10/01 02:21:26;;;;;;;;;;;22.90;99.90;;;;;;5155427;27;19903;-73
2022/10/01 02:24:06;;;;;;;;;;;23.00;99.90;;;;;;5155753;27;20295;-73
2022/10/01 02:26:36;;;;;;;;;;;23.00;99.90;;;;;;5155096;27;20270;-73
2022/10/01 02:29:06;;;;;;;;;;;22.90;99.90;;;;;;5155499;27;19913;-74
2022/10/01 02:31:33;;;;;;;;;;;23.00;99.90;;;;;;5155248;27;19903;-73
2022/10/01 02:34:01;;;;;;;;;;;23.00;99.90;;;;;;5155071;27;19911;-73
2022/10/01 02:36:28;;;;;;;;;;;22.90;99.90;;;;;;5153658;27;20271;-73
2022/10/01 02:38:55;;;;;;;;;;;22.90;99.90;;;;;;5155068;27;19910;-74
2022/10/01 02:41:23;;;;;;;;;;;23.00;99.90;;;;;;5153474;27;20051;-73
2022/10/01 02:44:02;;;;;;;;;;;23.10;99.90;;;;;;5155072;27;20377;-74
2022/10/01 02:46:40;;;;;;;;;;;23.00;99.90;;;;;;5155014;27;20009;-73
2022/10/01 02:49:13;;;;;;;;;;;23.00;99.90;;;;;;5154616;27;19910;-74
2022/10/01 02:51:48;;;;;;;;;;;22.90;99.90;;;;;;5154735;27;19934;-73
2022/10/01 02:54:21;;;;;;;;;;;22.80;99.90;;;;;;5152711;27;19903;-73
2022/10/01 03:02:35;;;;;;;;;;;22.70;99.90;;;;;;5155606;27;20303;-73
2022/10/01 03:05:01;;;;;;;;;;;22.80;99.90;;;;;;5154863;27;19903;-73
2022/10/01 03:07:28;;;;;;;;;;;22.70;99.90;;;;;;5155086;27;19911;-73
2022/10/01 03:09:54;;;;;;;;;;;22.80;99.90;;;;;;5155370;27;20005;-73
2022/10/01 03:12:20;;;;;;;;;;;22.80;99.90;;;;;;5153678;27;19993;-73
2022/10/01 03:14:46;;;;;;;;;;;22.80;99.90;;;;;;5154895;27;19915;-74
2022/10/01 03:17:13;;;;;;;;;;;22.70;99.90;;;;;;5155121;27;19903;-73
2022/10/01 03:19:39;;;;;;;;;;;22.70;99.90;;;;;;5154980;27;19903;-74
2022/10/01 03:22:05;;;;;;;;;;;22.70;99.90;;;;;;5155079;27;20367;-73
2022/10/01 03:24:31;;;;;;;;;;;22.70;99.90;;;;;;5154256;27;20001;-73
2022/10/01 03:26:57;;;;;;;;;;;22.70;99.90;;;;;;5155800;27;20005;-74
2022/10/01 03:29:23;;;;;;;;;;;22.70;99.90;;;;;;5155676;27;19987;-73
2022/10/01 03:31:50;;;;;;;;;;;22.80;99.90;;;;;;5155645;27;20355;-73
2022/10/01 03:34:16;;;;;;;;;;;22.90;99.90;;;;;;5155684;27;19907;-73
2022/10/01 03:36:42;;;;;;;;;;;22.90;99.90;;;;;;5153170;27;19903;-73
2022/10/01 03:39:07;;;;;;;;;;;22.90;99.90;;;;;;5155378;27;19903;-74
2022/10/01 03:41:33;;;;;;;;;;;22.80;99.90;;;;;;5155950;27;20001;-72
2022/10/01 03:43:59;;;;;;;;;;;22.80;99.90;;;;;;5155460;27;19923;-74
2022/10/01 03:46:25;;;;;;;;;;;22.70;99.90;;;;;;5155182;27;19918;-72
2022/10/01 03:48:51;;;;;;;;;;;22.70;99.90;;;;;;5155232;27;19903;-73
2022/10/01 03:51:19;;;;;;;;;;;22.70;99.90;;;;;;5155120;27;19903;-74
2022/10/01 03:53:46;;;;;;;;;;;22.70;99.90;;;;;;5155067;27;19946;-73
2022/10/01 03:56:12;;;;;;;;;;;22.60;99.90;;;;;;5155212;27;19903;-73
2022/10/01 03:58:37;;;;;;;;;;;22.60;99.90;;;;;;5155077;27;19944;-74
2022/10/01 04:01:03;;;;;;;;;;;22.50;99.90;;;;;;5155709;27;19903;-74
2022/10/01 04:03:29;;;;;;;;;;;22.50;99.90;;;;;;5155292;27;19907;-74
2022/10/01 04:05:55;;;;;;;;;;;22.50;99.90;;;;;;5153920;27;20346;-73
2022/10/01 04:08:22;;;;;;;;;;;22.60;99.90;;;;;;5155209;27;19907;-73
2022/10/01 04:10:56;;;;;;;;;;;22.50;99.90;;;;;;5154337;27;19903;-73
2022/10/01 04:13:22;;;;;;;;;;;22.60;99.90;;;;;;5155346;27;20373;-74
2022/10/01 04:15:48;;;;;;;;;;;22.70;99.90;;;;;;5155218;27;19910;-73
2022/10/01 04:18:16;;;;;;;;;;;22.60;99.90;;;;;;5155062;27;19948;-73
2022/10/01 04:20:42;;;;;;;;;;;22.60;99.90;;;;;;5154901;27;19907;-74
2022/10/01 04:23:07;;;;;;;;;;;22.60;99.90;;;;;;5153444;27;20353;-73
2022/10/01 04:25:43;;;;;;;;;;;22.60;99.90;;;;;;5155153;27;20382;-73
2022/10/01 04:28:12;;;;;;;;;;;22.70;99.90;;;;;;5155323;27;19958;-73
2022/10/01 04:30:42;;;;;;;;;;;22.70;99.90;;;;;;5155196;27;19942;-73
2022/10/01 04:33:10;;;;;;;;;;;22.70;99.90;;;;;;5155067;27;19917;-73
2022/10/01 04:35:36;;;;;;;;;;;22.70;99.90;;;;;;5155004;27;19903;-74
2022/10/01 04:38:07;;;;;;;;;;;22.80;99.90;;;;;;5155487;27;20274;-73
2022/10/01 04:40:34;;;;;;;;;;;22.80;99.90;;;;;;5155048;27;19903;-73
2022/10/01 04:43:03;;;;;;;;;;;22.80;99.90;;;;;;5155760;27;20354;-73
2022/10/01 04:45:35;;;;;;;;;;;22.80;99.90;;;;;;5154876;27;19910;-73
2022/10/01 04:48:17;;;;;;;;;;;22.70;99.90;;;;;;5153206;27;19911;-74
2022/10/01 04:50:45;;;;;;;;;;;22.70;99.90;;;;;;5155540;27;19907;-73
2022/10/01 04:53:14;;;;;;;;;;;22.70;99.90;;;;;;5154856;27;19903;-73
2022/10/01 04:55:41;;;;;;;;;;;22.80;99.90;;;;;;5152951;27;19903;-73
2022/10/01 04:58:07;;;;;;;;;;;22.90;99.90;;;;;;5154534;27;19998;-73
2022/10/01 05:00:33;;;;;;;;;;;22.90;99.90;;;;;;5154547;27;19946;-72
2022/10/01 05:02:58;;;;;;;;;;;22.90;99.90;;;;;;5154817;27;19930;-73
2022/10/01 05:05:27;;;;;;;;;;;22.80;99.90;;;;;;5154200;27;19938;-74
2022/10/01 05:07:54;;;;;;;;;;;22.80;99.90;;;;;;5154340;27;19911;-72
2022/10/01 05:10:21;;;;;;;;;;;22.80;99.90;;;;;;5154412;27;19907;-73
2022/10/01 05:12:47;;;;;;;;;;;22.90;99.90;;;;;;5154091;27;19903;-72
2022/10/01 05:15:14;;;;;;;;;;;22.80;99.90;;;;;;5153899;27;19922;-72
2022/10/01 05:17:40;;;;;;;;;;;22.90;99.90;;;;;;5153100;27;20259;-72
2022/10/01 05:20:27;;;;;;;;;;;22.90;99.90;;;;;;5152662;27;20385;-73
2022/10/01 05:22:55;;;;;;;;;;;22.80;99.90;;;;;;5154080;27;20001;-73
2022/10/01 05:25:21;;;;;;;;;;;22.90;99.90;;;;;;5154086;27;19910;-72
2022/10/01 05:27:47;;;;;;;;;;;22.90;99.90;;;;;;5152394;27;19911;-73
2022/10/01 05:30:13;;;;;;;;;;;22.90;99.90;;;;;;5153378;27;19979;-72
2022/10/01 05:32:40;;;;;;;;;;;23.00;99.90;;;;;;5152999;27;19910;-73
2022/10/01 05:35:07;;;;;;;;;;;23.00;99.90;;;;;;5153500;27;19903;-72
2022/10/01 05:37:33;;;;;;;;;;;23.00;99.90;;;;;;5153540;27;20315;-72
2022/10/01 05:39:59;;;;;;;;;;;23.10;99.90;;;;;;5153707;27;19906;-73
2022/10/01 05:42:24;;;;;;;;;;;23.20;99.90;;;;;;5152867;27;20346;-72
2022/10/01 05:44:50;;;;;;;;;;;23.10;99.90;;;;;;5153062;27;20258;-72
2022/10/01 05:47:16;;;;;;;;;;;23.20;99.90;;;;;;5152750;27;20301;-73
2022/10/01 05:49:43;;;;;;;;;;;23.20;99.90;;;;;;5151018;27;20345;-73
2022/10/01 05:52:12;;;;;;;;;;;23.20;99.90;;;;;;5152376;27;19937;-73
2022/10/01 05:54:38;;;;;;;;;;;23.30;99.90;;;;;;5152470;27;20101;-75
2022/10/01 05:57:04;;;;;;;;;;;23.20;99.90;;;;;;5152349;27;19942;-74
2022/10/01 05:59:33;;;;;;;;;;;23.30;99.90;;;;;;5152700;27;20009;-73
2022/10/01 06:01:59;;;;;;;;;;;23.40;99.90;;;;;;5156148;27;19974;-74
2022/10/01 06:04:25;;;;;;;;;;;23.40;99.90;;;;;;5156485;27;19959;-73
2022/10/01 06:06:55;;;;;;;;;;;23.40;99.90;;;;;;5156333;27;19911;-73
2022/10/01 06:09:20;;;;;;;;;;;23.40;99.90;;;;;;5156607;27;20243;-73
2022/10/01 06:11:47;;;;;;;;;;;23.40;99.90;;;;;;5156318;27;19903;-74
2022/10/01 06:14:13;;;;;;;;;;;23.40;99.90;;;;;;5155955;27;19968;-73
2022/10/01 06:16:39;;;;;;;;;;;23.40;99.90;;;;;;5156305;27;19937;-74
2022/10/01 06:19:05;;;;;;;;;;;23.50;99.90;;;;;;5156399;27;19927;-73
2022/10/01 06:21:31;;;;;;;;;;;23.60;99.90;;;;;;5156110;27;19951;-74
2022/10/01 06:23:56;;;;;;;;;;;23.70;99.90;;;;;;5155985;27;19956;-74
2022/10/01 06:26:23;;;;;;;;;;;23.80;99.90;;;;;;5154554;27;20360;-74
2022/10/01 06:28:49;;;;;;;;;;;24.00;99.90;;;;;;5156136;27;20313;-75
2022/10/01 06:31:15;;;;;;;;;;;24.00;99.90;;;;;;5156060;27;19942;-73
2022/10/01 06:33:41;;;;;;;;;;;24.00;99.90;;;;;;5155994;27;20362;-75
2022/10/01 06:36:07;;;;;;;;;;;24.00;99.90;;;;;;5156444;27;20002;-74
2022/10/01 06:38:33;;;;;;;;;;;24.00;99.90;;;;;;5156161;27;20047;-74
2022/10/01 06:41:00;;;;;;;;;;;24.00;99.90;;;;;;5155985;27;19903;-74
2022/10/01 06:43:27;;;;;;;;;;;24.00;99.90;;;;;;5155980;27;19910;-74
2022/10/01 06:45:53;;;;;;;;;;;24.20;99.90;;;;;;5155887;27;19903;-73
2022/10/01 06:48:19;;;;;;;;;;;24.20;99.90;;;;;;5155848;27;20368;-74
2022/10/01 06:50:46;;;;;;;;;;;24.30;99.90;;;;;;5155710;27;19978;-74
2022/10/01 06:53:18;;;;;;;;;;;24.30;99.90;;;;;;5155619;27;19903;-74
2022/10/01 06:55:45;;;;;;;;;;;24.40;99.90;;;;;;5155625;27;19917;-75
2022/10/01 06:58:14;;;;;;;;;;;24.40;99.90;;;;;;5155655;27;19903;-75
2022/10/01 07:00:41;;;;;;;;;;;24.50;99.90;;;;;;5155591;27;20350;-74
2022/10/01 07:03:09;;;;;;;;;;;24.60;99.90;;;;;;5153994;27;19903;-74
2022/10/01 07:05:36;;;;;;;;;;;24.70;99.90;;;;;;5153934;27;19942;-75
2022/10/01 07:08:02;;;;;;;;;;;24.90;99.90;;;;;;5155044;27;20006;-74
2022/10/01 07:10:28;;;;;;;;;;;25.10;99.90;;;;;;5155239;27;19907;-74
2022/10/01 07:12:54;;;;;;;;;;;25.70;99.90;;;;;;5154933;27;20006;-73
2022/10/01 07:15:27;;;;;;;;;;;25.90;99.90;;;;;;5153650;27;19915;-74
2022/10/01 07:17:53;;;;;;;;;;;25.90;99.90;;;;;;5155452;27;19910;-74
2022/10/01 07:20:19;;;;;;;;;;;26.10;99.90;;;;;;5154983;27;19903;-73
2022/10/01 07:22:46;;;;;;;;;;;26.30;99.90;;;;;;5153406;27;19926;-74
2022/10/01 07:25:12;;;;;;;;;;;26.40;99.90;;;;;;5154985;27;19903;-74
2022/10/01 07:27:38;;;;;;;;;;;26.40;99.90;;;;;;5153402;27;19926;-74
2022/10/01 07:30:04;;;;;;;;;;;26.80;99.90;;;;;;5153485;27;19924;-74
2022/10/01 07:32:30;;;;;;;;;;;27.00;99.90;;;;;;5154919;27;19999;-74
2022/10/01 07:34:57;;;;;;;;;;;27.40;99.90;;;;;;5155024;27;19907;-74
2022/10/01 07:37:23;;;;;;;;;;;27.70;99.90;;;;;;5154958;27;19963;-74
2022/10/01 07:39:49;;;;;;;;;;;27.90;99.90;;;;;;5154707;27;20353;-75
2022/10/01 07:42:15;;;;;;;;;;;28.30;99.90;;;;;;5154555;27;19903;-74
2022/10/01 07:44:42;;;;;;;;;;;28.40;99.90;;;;;;5154611;27;19915;-74
2022/10/01 07:47:08;;;;;;;;;;;28.50;99.90;;;;;;5154329;27;20010;-74
2022/10/01 07:49:33;;;;;;;;;;;28.80;99.90;;;;;;5153617;27;19994;-74
2022/10/01 07:51:59;;;;;;;;;;;28.80;99.90;;;;;;5153593;27;20278;-74
2022/10/01 07:54:25;;;;;;;;;;;29.00;99.90;;;;;;5153589;27;19903;-75
2022/10/01 07:56:54;;;;;;;;;;;29.00;99.90;;;;;;5153580;27;20035;-75
2022/10/01 07:59:21;;;;;;;;;;;28.90;99.90;;;;;;5154078;27;19914;-75
2022/10/01 08:07:34;;;;;;;;;;;29.00;99.90;;;;;;5153584;27;19918;-74
2022/10/01 08:10:03;;;;;;;;;;;28.80;99.90;;;;;;5153655;27;19994;-75
2022/10/01 08:12:29;;;;;;;;;;;28.20;99.90;;;;;;5153271;27;19903;-74
2022/10/01 08:14:55;;;;;;;;;;;27.80;99.90;;;;;;5151589;27;19957;-73
2022/10/01 08:17:27;;;;;;;;;;;27.70;99.90;;;;;;5151552;27;19907;-73
2022/10/01 08:19:52;;;;;;;;;;;27.90;99.90;;;;;;5151815;27;20002;-74
2022/10/01 08:22:18;;;;;;;;;;;28.10;99.90;;;;;;5152548;27;19976;-74
2022/10/01 08:24:46;;;;;;;;;;;28.30;99.90;;;;;;5152915;27;20052;-74
2022/10/01 08:27:12;;;;;;;;;;;28.30;99.90;;;;;;5152821;27;19907;-75
2022/10/01 08:29:42;;;;;;;;;;;28.40;99.90;;;;;;5153271;27;20343;-74
2022/10/01 08:32:09;;;;;;;;;;;28.70;99.90;;;;;;5151515;27;19964;-74
2022/10/01 08:34:35;;;;;;;;;;;28.80;99.90;;;;;;5152917;27;19950;-75
2022/10/01 08:37:25;;;;;;;;;;;28.70;99.90;;;;;;5153156;27;19923;-75
2022/10/01 08:39:51;;;;;;;;;;;28.60;99.90;;;;;;5152710;27;19903;-74
2022/10/01 08:42:32;;;;;;;;;;;28.70;99.90;;;;;;5152557;27;19913;-74
2022/10/01 08:45:00;;;;;;;;;;;29.00;99.90;;;;;;5150723;27;19903;-74
2022/10/01 08:47:32;;;;;;;;;;;29.10;99.90;;;;;;5152223;27;20278;-74
2022/10/01 08:50:01;;;;;;;;;;;28.90;99.90;;;;;;5151695;27;19993;-74
2022/10/01 08:52:29;;;;;;;;;;;28.80;99.90;;;;;;5151818;27;20316;-74
2022/10/01 08:55:05;;;;;;;;;;;28.80;99.90;;;;;;5150833;27;20354;-75
2022/10/01 08:57:33;;;;;;;;;;;28.50;99.90;;;;;;5150388;27;19903;-74
2022/10/01 09:00:02;;;;;;;;;;;28.40;99.90;;;;;;5152059;27;19903;-74
2022/10/01 09:02:30;;;;;;;;;;;28.50;99.90;;;;;;5150586;27;19913;-74
2022/10/01 09:04:57;;;;;;;;;;;28.20;99.90;;;;;;5151859;27;19971;-74
2022/10/01 09:07:26;;;;;;;;;;;28.10;99.90;;;;;;5151674;27;20347;-74
2022/10/01 09:10:04;;;;;;;;;;;28.30;99.90;;;;;;5151684;27;20344;-75
2022/10/01 09:12:36;;;;;;;;;;;28.50;99.90;;;;;;5151786;27;19918;-74
2022/10/01 09:15:19;;;;;;;;;;;28.60;99.90;;;;;;5145614;27;19915;-75
2022/10/01 09:17:57;;;;;;;;;;;28.50;99.90;;;;;;5152021;27;20373;-76
2022/10/01 09:20:28;;;;;;;;;;;28.70;99.90;;;;;;5152006;27;20061;-74
2022/10/01 09:23:28;;;;;;;;;;;28.80;99.90;;;;;;5151507;27;19903;-75
2022/10/01 09:25:56;;;;;;;;;;;28.80;99.90;;;;;;5151380;27;20346;-75
2022/10/01 09:28:23;;;;;;;;;;;28.90;99.90;;;;;;5150030;27;20226;-74
2022/10/01 09:31:02;;;;;;;;;;;28.80;99.90;;;;;;5151625;27;20027;-75
2022/10/01 09:33:36;;;;;;;;;;;28.90;99.90;;;;;;5151774;27;19909;-76
2022/10/01 09:36:02;;;;;;;;;;;28.80;99.90;;;;;;5154753;27;19902;-74
2022/10/01 09:38:53;;;;;;;;;;;29.10;99.90;;;;;;5155941;27;19998;-75
2022/10/01 09:41:19;;;;;;;;;;;29.20;99.90;;;;;;5153848;27;19951;-75
2022/10/01 09:43:46;;;;;;;;;;;29.50;99.90;;;;;;5155648;27;19903;-75
2022/10/01 09:46:14;;;;;;;;;;;29.50;99.90;;;;;;5155574;27;19903;-74
2022/10/01 09:51:49;;;;;;;;;;;29.40;99.90;;;;;;5155575;27;19960;-75
2022/10/01 09:54:32;;;;;;;;;;;29.50;99.90;;;;;;5156038;27;20255;-75
2022/10/01 09:57:13;;;;;;;;;;;29.30;99.90;;;;;;5155098;27;19903;-75
2022/10/01 09:59:52;;;;;;;;;;;29.50;99.90;;;;;;5155584;27;19910;-76
2022/10/01 10:02:25;;;;;;;;;;;29.90;99.90;;;;;;5155036;27;19903;-74
2022/10/01 10:05:04;;;;;;;;;;;30.10;99.90;;;;;;5153416;27;20068;-75
2022/10/01 10:07:34;;;;;;;;;;;29.70;99.90;;;;;;5155187;27;19938;-75
2022/10/01 10:10:11;;;;;;;;;;;29.90;99.90;;;;;;5153569;27;19991;-74
2022/10/01 10:12:36;;;;;;;;;;;30.10;99.90;;;;;;5154035;27;19903;-76
2022/10/01 10:15:27;;;;;;;;;;;30.40;99.90;;;;;;5154918;27;19915;-74
2022/10/01 10:17:54;;;;;;;;;;;30.50;99.90;;;;;;5155487;27;19903;-75
2022/10/01 10:20:27;;;;;;;;;;;30.80;99.90;;;;;;5154874;27;19907;-74
2022/10/01 10:22:53;;;;;;;;;;;30.80;99.90;;;;;;5155039;27;19903;-74
2022/10/01 10:25:20;;;;;;;;;;;30.80;99.90;;;;;;5154803;27;19903;-74
2022/10/01 10:27:54;;;;;;;;;;;30.60;99.90;;;;;;5154806;27;20006;-74
2022/10/01 10:30:23;;;;;;;;;;;30.20;99.90;;;;;;5154610;27;19947;-74
2022/10/01 10:32:49;;;;;;;;;;;30.00;99.90;;;;;;5154590;27;19915;-73
2022/10/01 10:35:16;;;;;;;;;;;29.70;99.90;;;;;;5154653;27;19934;-74
2022/10/01 10:37:50;;;;;;;;;;;29.40;99.90;;;;;;5154711;27;20318;-74
2022/10/01 10:40:20;;;;;;;;;;;29.40;99.90;;;;;;5154398;27;19934;-74
2022/10/01 10:42:47;;;;;;;;;;;29.30;99.90;;;;;;5154775;27;20081;-74
2022/10/01 10:45:18;;;;;;;;;;;29.40;99.90;;;;;;5152777;27;20274;-73
2022/10/01 10:50:47;;;;;;;;;;;30.20;99.90;;;;;;5154478;27;20396;-74
2022/10/01 10:53:17;;;;;;;;;;;30.50;99.90;;;;;;5155161;27;19915;-74
2022/10/01 10:55:52;;;;;;;;;;;30.50;99.90;;;;;;5153193;27;19994;-74
2022/10/01 10:58:28;;;;;;;;;;;30.20;99.90;;;;;;5154914;27;19950;-74
2022/10/01 11:00:56;;;;;;;;;;;29.80;99.90;;;;;;5152519;27;19903;-74
2022/10/01 11:03:29;;;;;;;;;;;29.70;99.90;;;;;;5152922;27;19960;-74
2022/10/01 11:05:58;;;;;;;;;;;29.80;99.90;;;;;;5153757;27;20338;-73
2022/10/01 11:08:26;;;;;;;;;;;30.20;99.90;;;;;;5154283;27;19966;-74
2022/10/01 11:11:07;;;;;;;;;;;30.50;99.90;;;;;;5154189;27;19922;-74
2022/10/01 11:13:41;;;;;;;;;;;30.50;99.90;;;;;;5152644;27;19915;-74
2022/10/01 11:16:17;;;;;;;;;;;30.60;99.90;;;;;;5154216;27;20351;-73
2022/10/01 11:18:55;;;;;;;;;;;30.40;99.90;;;;;;5152555;27;19903;-73
2022/10/01 11:21:27;;;;;;;;;;;30.50;99.90;;;;;;5154087;27;19994;-73
2022/10/01 11:24:11;;;;;;;;;;;30.60;99.90;;;;;;5154380;27;19978;-74
2022/10/01 11:26:56;;;;;;;;;;;30.70;99.90;;;;;;5153980;27;20326;-73
2022/10/01 11:29:30;;;;;;;;;;;31.00;99.90;;;;;;5154006;27;19989;-73
2022/10/01 11:32:02;;;;;;;;;;;31.00;99.90;;;;;;5154196;27;19949;-73
2022/10/01 11:34:31;;;;;;;;;;;31.00;99.90;;;;;;5153886;27;19921;-74
2022/10/01 11:37:20;;;;;;;;;;;31.30;99.90;;;;;;5153658;27;19903;-73
2022/10/01 11:39:48;;;;;;;;;;;31.30;99.90;;;;;;5147593;27;19911;-75
2022/10/01 11:42:33;;;;;;;;;;;31.40;99.90;;;;;;5153435;27;19946;-74
2022/10/01 11:45:03;;;;;;;;;;;31.30;99.90;;;;;;5153608;27;19906;-74
2022/10/01 11:47:30;;;;;;;;;;;31.20;99.90;;;;;;5153665;27;20262;-74
2022/10/01 11:50:12;;;;;;;;;;;31.20;99.90;;;;;;5153632;27;19903;-74
2022/10/01 11:52:41;;;;;;;;;;;31.10;99.90;;;;;;5154225;27;19903;-74
2022/10/01 12:01:10;;;;;;;;;;;30.90;99.90;;;;;;5110823;28;19910;-74
2022/10/01 12:03:45;;;;;;;;;;;31.30;99.90;;;;;;5110105;28;19904;-73
2022/10/01 12:06:13;;;;;;;;;;;31.20;99.90;;;;;;5110194;28;19908;-74
2022/10/01 12:08:40;;;;;;;;;;;31.40;99.90;;;;;;5110197;28;20074;-73
2022/10/01 12:11:29;;;;;;;;;;;31.30;99.90;;;;;;5110045;28;19903;-73
2022/10/01 12:14:01;;;;;;;;;;;31.00;99.90;;;;;;5109187;28;19912;-73
2022/10/01 12:16:29;;;;;;;;;;;31.40;99.90;;;;;;5109836;28;19903;-73
2022/10/01 12:19:09;;;;;;;;;;;31.50;99.60;;;;;;5110357;28;20396;-74
2022/10/01 12:21:50;;;;;;;;;;;31.20;98.80;;;;;;5109813;28;19997;-74
2022/10/01 12:24:20;;;;;;;;;;;31.30;98.90;;;;;;5109768;28;19904;-74
2022/10/01 12:26:58;;;;;;;;;;;31.40;98.60;;;;;;5109692;28;19907;-74
2022/10/01 12:29:42;;;;;;;;;;;31.70;98.40;;;;;;5109834;28;19911;-73
2022/10/01 12:32:17;;;;;;;;;;;31.90;98.40;;;;;;5109651;28;20010;-73
2022/10/01 12:35:01;;;;;;;;;;;31.70;98.20;;;;;;5150453;27;19903;-73
2022/10/01 12:37:57;;;;;;;;;;;31.70;98.20;;;;;;5153510;27;20015;-74
2022/10/01 12:40:26;;;;;;;;;;;31.90;98.10;;;;;;5143510;27;19914;-73
2022/10/01 12:43:12;;;;;;;;;;;31.90;98.00;;;;;;5153396;27;20354;-74
2022/10/01 12:45:42;;;;;;;;;;;31.90;98.10;;;;;;5152870;27;19903;-73
2022/10/01 12:48:27;;;;;;;;;;;31.50;98.10;;;;;;5151378;27;19994;-74
2022/10/01 12:50:56;;;;;;;;;;;31.60;98.30;;;;;;5152889;27;19911;-73
2022/10/01 12:53:26;;;;;;;;;;;31.70;98.50;;;;;;5151312;27;19903;-74
2022/10/01 12:56:06;;;;;;;;;;;31.80;98.60;;;;;;5152865;27;20374;-73
2022/10/01 12:58:51;;;;;;;;;;;31.70;98.60;;;;;;5152703;27;20066;-73
2022/10/01 13:01:33;;;;;;;;;;;31.60;99.10;;;;;;5153041;27;19950;-73
2022/10/01 13:03:58;;;;;;;;;;;31.40;99.70;;;;;;5152412;27;19904;-74
2022/10/01 13:06:39;;;;;;;;;;;31.30;99.70;;;;;;5152746;27;19910;-73
2022/10/01 13:09:11;;;;;;;;;;;31.20;99.90;;;;;;5155116;27;19907;-73
2022/10/01 13:11:57;;;;;;;;;;;30.70;99.90;;;;;;5159816;27;19902;-73
2022/10/01 13:14:23;;;;;;;;;;;30.60;99.90;;;;;;5159434;27;20432;-73
2022/10/01 13:16:58;;;;;;;;;;;30.50;99.90;;;;;;5159807;27;19903;-73
2022/10/01 13:19:24;;;;;;;;;;;30.50;99.90;;;;;;5159765;27;19914;-74
2022/10/01 13:22:06;;;;;;;;;;;30.60;99.90;;;;;;5159968;27;19903;-74
2022/10/01 13:24:37;;;;;;;;;;;30.70;99.90;;;;;;5157960;27;19998;-75
2022/10/01 13:27:17;;;;;;;;;;;30.70;98.90;;;;;;5159857;27;19934;-73
2022/10/01 13:29:51;;;;;;;;;;;30.30;98.80;;;;;;5159605;27;20002;-74
2022/10/01 13:32:26;;;;;;;;;;;30.30;98.80;;;;;;5158151;27;19903;-73
2022/10/01 13:34:52;;;;;;;;;;;30.30;98.70;;;;;;5159907;27;19907;-73
2022/10/01 13:37:30;;;;;;;;;;;30.50;99.00;;;;;;5159448;27;19903;-74
2022/10/01 13:39:59;;;;;;;;;;;30.60;99.50;;;;;;5158643;27;20311;-73
2022/10/01 13:42:26;;;;;;;;;;;30.50;99.90;;;;;;5159718;27;19938;-74
2022/10/01 13:45:03;;;;;;;;;;;30.30;99.90;;;;;;5159468;27;19928;-74
2022/10/01 13:47:29;;;;;;;;;;;30.50;99.90;;;;;;5159408;27;19917;-73
2022/10/01 13:49:59;;;;;;;;;;;30.50;99.20;;;;;;5159181;27;20223;-73
2022/10/01 13:52:25;;;;;;;;;;;30.50;98.90;;;;;;5159485;27;19910;-73
2022/10/01 13:54:53;;;;;;;;;;;30.60;99.00;;;;;;5157906;27;19979;-73
2022/10/01 13:57:30;;;;;;;;;;;30.60;98.90;;;;;;5158953;27;20056;-73
2022/10/01 14:00:10;;;;;;;;;;;30.50;99.10;;;;;;5159565;27;19903;-73
2022/10/01 14:02:38;;;;;;;;;;;30.50;99.30;;;;;;5158912;27;20022;-72
2022/10/01 14:05:16;;;;;;;;;;;30.20;99.90;;;;;;5159136;27;19903;-74
2022/10/01 14:07:42;;;;;;;;;;;30.30;99.90;;;;;;5159135;27;20355;-73
2022/10/01 14:10:11;;;;;;;;;;;30.30;99.90;;;;;;5159198;27;19910;-72
2022/10/01 14:18:14;;;;;;;;;;;30.30;99.90;;;;;;5159512;27;19978;-72
2022/10/01 14:20:59;;;;;;;;;;;30.10;99.90;;;;;;5157114;27;19903;-73
2022/10/01 14:23:30;;;;;;;;;;;30.10;99.90;;;;;;5155972;27;19903;-73
2022/10/01 14:26:11;;;;;;;;;;;30.20;99.90;;;;;;5155837;27;19990;-73
2022/10/01 14:28:46;;;;;;;;;;;30.30;99.90;;;;;;5155495;27;19930;-72
2022/10/01 14:31:34;;;;;;;;;;;30.30;99.90;;;;;;5155762;27;19906;-72
2022/10/01 14:34:14;;;;;;;;;;;30.40;99.90;;;;;;5155709;27;20384;-73
2022/10/01 14:36:42;;;;;;;;;;;30.40;99.90;;;;;;5155707;27;19903;-72
2022/10/01 14:39:14;;;;;;;;;;;30.30;99.60;;;;;;5154106;27;19993;-73
2022/10/01 14:41:40;;;;;;;;;;;30.30;99.70;;;;;;5155471;27;19903;-73
2022/10/01 14:44:23;;;;;;;;;;;30.00;99.70;;;;;;5153936;27;20022;-72
2022/10/01 14:46:53;;;;;;;;;;;30.00;99.90;;;;;;5155984;27;19998;-73
2022/10/01 14:49:20;;;;;;;;;;;29.80;99.90;;;;;;5155261;27;20064;-73
2022/10/01 14:51:50;;;;;;;;;;;29.70;99.90;;;;;;5154123;27;20312;-72
2022/10/01 14:54:17;;;;;;;;;;;29.80;99.90;;;;;;5153777;27;20357;-73
2022/10/01 14:56:42;;;;;;;;;;;29.70;99.90;;;;;;5155160;27;19910;-72
2022/10/01 14:59:13;;;;;;;;;;;29.60;99.90;;;;;;5154876;27;19907;-73
2022/10/01 15:01:38;;;;;;;;;;;29.60;99.90;;;;;;5155022;27;19946;-73
2022/10/01 15:04:12;;;;;;;;;;;29.60;99.90;;;;;;5153365;27;19942;-73